createdAt,value
2018-12-29T00:00:08.770Z,21.00
2018-12-29T00:03:03.193Z,21.00
2018-12-29T00:05:56.396Z,21.00
2018-12-29T00:08:59.301Z,21.00
2018-12-29T00:11:52.491Z,21.00
2018-12-29T00:14:46.308Z,21.00
2018-12-29T00:17:40.008Z,21.00
2018-12-29T00:20:33.595Z,21.00
2018-12-29T00:23:27.255Z,21.00
2018-12-29T00:26:20.539Z,21.00
2018-12-29T00:29:13.907Z,21.00
2018-12-29T00:32:07.134Z,21.00
2018-12-29T00:35:01.197Z,21.00
2018-12-29T00:37:54.977Z,20.90
2018-12-29T00:40:48.284Z,21.00
2018-12-29T00:43:41.740Z,20.90
2018-12-29T00:46:34.929Z,20.90
2018-12-29T00:49:28.134Z,20.90
2018-12-29T00:52:21.578Z,20.90
2018-12-29T00:55:14.648Z,20.90
2018-12-29T00:58:07.892Z,20.90
2018-12-29T01:01:00.969Z,20.90
2018-12-29T01:03:54.320Z,20.90
2018-12-29T01:06:49.978Z,20.90
2018-12-29T01:09:42.925Z,20.90
2018-12-29T01:12:36.433Z,20.90
2018-12-29T01:15:30.324Z,20.90
2018-12-29T01:18:23.807Z,20.90
2018-12-29T01:21:17.466Z,20.90
2018-12-29T01:24:10.971Z,20.90
2018-12-29T01:27:04.523Z,20.90
2018-12-29T01:29:57.832Z,20.90
2018-12-29T01:32:51.306Z,20.80
2018-12-29T01:35:45.065Z,20.90
2018-12-29T01:38:38.957Z,20.80
2018-12-29T01:41:32.221Z,20.80
2018-12-29T01:44:25.819Z,20.80
2018-12-29T01:47:19.034Z,20.80
2018-12-29T01:50:12.373Z,20.90
2018-12-29T01:53:05.640Z,20.80
2018-12-29T01:55:59.061Z,20.80
2018-12-29T01:58:52.525Z,20.80
2018-12-29T02:01:45.921Z,20.80
2018-12-29T02:04:39.125Z,20.80
2018-12-29T02:07:32.877Z,20.80
2018-12-29T02:10:28.142Z,20.80
2018-12-29T02:13:21.390Z,20.80
2018-12-29T02:16:14.546Z,20.80
2018-12-29T02:19:07.611Z,20.80
2018-12-29T02:22:00.872Z,20.80
2018-12-29T02:24:54.089Z,20.80
2018-12-29T02:27:46.883Z,20.80
2018-12-29T02:30:40.030Z,20.80
2018-12-29T02:33:32.908Z,20.80
2018-12-29T02:36:26.571Z,20.80
2018-12-29T02:39:21.887Z,20.80
2018-12-29T02:42:15.353Z,20.80
2018-12-29T02:45:11.345Z,20.80
2018-12-29T02:48:05.005Z,20.80
2018-12-29T02:50:58.591Z,20.80
2018-12-29T02:53:51.987Z,20.80
2018-12-29T02:56:45.365Z,20.80
2018-12-29T02:59:38.833Z,20.80
2018-12-29T03:02:31.945Z,20.80
2018-12-29T03:05:25.326Z,20.80
2018-12-29T03:08:18.670Z,20.70
2018-12-29T03:11:12.085Z,20.70
2018-12-29T03:14:08.526Z,20.70
2018-12-29T03:17:01.856Z,20.70
2018-12-29T03:19:55.212Z,20.70
2018-12-29T03:22:48.908Z,20.70
2018-12-29T03:25:42.262Z,20.70
2018-12-29T03:28:35.495Z,20.70
2018-12-29T03:31:29.074Z,20.70
2018-12-29T03:34:23.644Z,20.70
2018-12-29T03:37:18.841Z,20.70
2018-12-29T03:40:11.867Z,20.70
2018-12-29T03:43:05.472Z,20.70
2018-12-29T03:46:02.184Z,20.70
2018-12-29T03:48:55.583Z,20.70
2018-12-29T03:51:49.125Z,20.70
2018-12-29T03:54:42.317Z,20.70
2018-12-29T03:57:35.270Z,20.70
2018-12-29T04:00:28.572Z,20.60
2018-12-29T04:03:22.017Z,20.70
2018-12-29T04:06:16.360Z,20.60
2018-12-29T04:09:28.196Z,20.60
2018-12-29T04:12:26.229Z,20.70
2018-12-29T04:15:20.068Z,20.70
2018-12-29T04:18:14.281Z,20.60
2018-12-29T04:21:07.698Z,20.60
2018-12-29T04:24:01.461Z,20.60
2018-12-29T04:26:55.310Z,20.60
2018-12-29T04:29:50.465Z,20.60
2018-12-29T04:32:48.058Z,20.60
2018-12-29T04:35:41.869Z,20.60
2018-12-29T04:38:35.892Z,20.60
2018-12-29T04:41:30.631Z,20.60
2018-12-29T04:44:25.152Z,20.60
2018-12-29T04:47:18.350Z,20.60
2018-12-29T04:50:12.090Z,20.60
2018-12-29T04:53:06.655Z,20.60
2018-12-29T04:55:59.928Z,20.60
2018-12-29T04:58:56.645Z,20.60
2018-12-29T05:01:50.075Z,20.60
2018-12-29T05:04:46.984Z,20.60
2018-12-29T05:07:42.444Z,20.60
2018-12-29T05:10:36.621Z,20.60
2018-12-29T05:13:30.075Z,20.60
2018-12-29T05:16:23.782Z,20.60
2018-12-29T05:19:18.231Z,20.60
2018-12-29T05:49:08.057Z,20.60
2018-12-29T05:52:05.560Z,21.30
2018-12-29T05:55:04.023Z,20.90
2018-12-29T05:57:58.988Z,20.70
2018-12-29T06:00:53.833Z,20.70
2018-12-29T06:05:16.910Z,21.30
2018-12-29T06:08:11.124Z,21.40
2018-12-29T06:11:05.300Z,21.10
2018-12-29T06:14:44.829Z,20.90
2018-12-29T06:17:38.924Z,20.90
2018-12-29T06:20:37.636Z,20.80
2018-12-29T06:23:34.625Z,20.80
2018-12-29T06:26:46.290Z,20.70
2018-12-29T06:29:43.068Z,20.70
2018-12-29T06:32:39.733Z,20.70
2018-12-29T06:35:34.589Z,20.70
2018-12-29T06:38:36.151Z,20.70
2018-12-29T06:41:30.736Z,20.70
2018-12-29T06:44:24.968Z,20.70
2018-12-29T06:47:18.437Z,20.70
2018-12-29T06:50:26.552Z,20.70
2018-12-29T06:54:30.081Z,20.70
2018-12-29T06:57:37.754Z,20.90
2018-12-29T07:00:33.132Z,20.80
2018-12-29T07:03:26.879Z,20.80
2018-12-29T07:06:26.174Z,20.80
2018-12-29T07:09:21.018Z,20.80
2018-12-29T07:12:17.313Z,20.80
2018-12-29T07:15:10.992Z,20.80
2018-12-29T07:18:04.466Z,20.90
2018-12-29T07:20:57.832Z,20.90
2018-12-29T07:23:51.827Z,21.00
2018-12-29T07:26:45.329Z,21.00
2018-12-29T07:30:17.375Z,21.00
2018-12-29T07:33:36.681Z,21.00
2018-12-29T07:36:32.618Z,21.00
2018-12-29T07:39:27.567Z,21.10
2018-12-29T07:42:23.799Z,21.10
2018-12-29T07:45:18.057Z,21.10
2018-12-29T07:48:15.339Z,21.10
2018-12-29T07:51:09.713Z,21.20
2018-12-29T07:54:04.412Z,21.10
2018-12-29T07:57:19.989Z,21.10
2018-12-29T08:00:15.023Z,21.20
2018-12-29T08:03:10.074Z,21.20
2018-12-29T08:06:08.229Z,21.20
2018-12-29T08:09:03.792Z,21.30
2018-12-29T08:11:57.859Z,21.30
2018-12-29T08:14:53.087Z,21.40
2018-12-29T08:17:53.065Z,21.40
2018-12-29T08:20:48.958Z,21.40
2018-12-29T08:23:42.587Z,21.30
2018-12-29T08:26:35.762Z,21.30
2018-12-29T08:29:29.879Z,21.30
2018-12-29T08:32:23.146Z,21.40
2018-12-29T08:35:19.661Z,21.40
2018-12-29T08:38:13.651Z,21.40
2018-12-29T08:41:06.886Z,21.40
2018-12-29T08:43:59.959Z,21.50
2018-12-29T08:46:54.225Z,21.50
2018-12-29T08:49:51.803Z,21.50
2018-12-29T08:52:53.514Z,21.40
2018-12-29T08:57:47.884Z,21.40
2018-12-29T09:01:00.684Z,21.40
2018-12-29T09:08:19.853Z,21.60
2018-12-29T09:11:26.215Z,21.30
2018-12-29T09:17:43.226Z,21.00
2018-12-29T09:20:48.307Z,20.80
2018-12-29T09:23:49.052Z,20.80
2018-12-29T09:26:49.191Z,20.70
2018-12-29T09:29:49.336Z,20.70
2018-12-29T09:32:42.627Z,20.70
2018-12-29T09:35:35.856Z,20.60
2018-12-29T09:38:31.151Z,20.60
2018-12-29T09:41:26.089Z,20.60
2018-12-29T09:44:20.661Z,20.60
2018-12-29T09:47:19.818Z,20.60
2018-12-29T09:50:11.129Z,20.60
2018-12-29T09:53:05.795Z,20.60
2018-12-29T09:56:00.429Z,20.60
2018-12-29T09:58:56.594Z,20.60
2018-12-29T10:01:49.510Z,20.60
2018-12-29T10:04:46.335Z,20.60
2018-12-29T10:07:40.051Z,20.60
2018-12-29T10:14:16.429Z,20.60
2018-12-29T10:17:15.542Z,20.60
2018-12-29T10:20:09.710Z,20.60
2018-12-29T10:23:04.932Z,20.60
2018-12-29T10:25:58.879Z,20.60
2018-12-29T10:28:52.687Z,20.60
2018-12-29T10:31:46.309Z,20.60
2018-12-29T10:34:40.655Z,20.60
2018-12-29T10:37:35.083Z,20.60
2018-12-29T10:40:28.812Z,20.60
2018-12-29T10:43:22.532Z,20.60
2018-12-29T10:46:16.113Z,20.60
2018-12-29T10:49:09.292Z,20.60
2018-12-29T10:52:02.893Z,20.60
2018-12-29T10:54:57.725Z,20.60
2018-12-29T10:57:53.107Z,20.60
2018-12-29T11:00:53.142Z,20.60
2018-12-29T11:03:46.672Z,20.60
2018-12-29T11:06:40.118Z,20.60
2018-12-29T11:09:33.824Z,20.60
2018-12-29T11:12:27.569Z,20.60
2018-12-29T11:15:20.934Z,20.60
2018-12-29T11:18:14.909Z,20.60
2018-12-29T11:21:09.447Z,20.60
2018-12-29T11:24:03.462Z,20.60
2018-12-29T11:26:57.977Z,20.60
2018-12-29T11:29:51.351Z,20.60
2018-12-29T11:32:44.997Z,20.60
2018-12-29T11:35:38.811Z,20.60
2018-12-29T11:38:32.696Z,20.60
2018-12-29T11:41:29.761Z,20.60
2018-12-29T11:44:24.275Z,20.60
2018-12-29T11:47:20.677Z,20.60
2018-12-29T11:50:15.647Z,20.60
2018-12-29T11:53:08.863Z,20.60
2018-12-29T11:56:02.892Z,20.60
2018-12-29T11:58:56.760Z,20.60
2018-12-29T12:01:49.970Z,20.60
2018-12-29T12:04:44.689Z,20.60
2018-12-29T12:07:38.072Z,20.60
2018-12-29T12:10:32.662Z,20.60
2018-12-29T12:13:26.974Z,20.60
2018-12-29T12:16:20.768Z,20.60
2018-12-29T12:19:14.971Z,20.60
2018-12-29T12:22:09.307Z,20.60
2018-12-29T12:25:05.522Z,20.60
2018-12-29T12:27:58.804Z,20.60
2018-12-29T12:30:53.493Z,20.60
2018-12-29T12:33:50.936Z,20.60
2018-12-29T12:36:47.075Z,20.60
2018-12-29T12:39:42.907Z,20.60
2018-12-29T12:42:37.594Z,20.60
2018-12-29T12:45:31.508Z,20.60
2018-12-29T12:48:24.790Z,20.60
2018-12-29T12:51:18.418Z,20.60
2018-12-29T12:54:11.723Z,20.60
2018-12-29T12:57:05.518Z,20.60
2018-12-29T12:59:59.369Z,20.60
2018-12-29T13:02:56.070Z,20.60
2018-12-29T13:05:47.890Z,20.60
2018-12-29T13:08:41.753Z,20.60
2018-12-29T13:11:36.466Z,20.60
2018-12-29T13:14:30.095Z,20.60
2018-12-29T13:17:23.425Z,20.60
2018-12-29T13:20:16.927Z,20.60
2018-12-29T13:23:11.882Z,20.70
2018-12-29T13:26:05.807Z,20.60
2018-12-29T13:28:59.269Z,20.60
2018-12-29T13:31:52.570Z,20.70
2018-12-29T13:34:46.229Z,20.60
2018-12-29T13:37:39.771Z,20.60
2018-12-29T13:40:33.036Z,20.60
2018-12-29T13:43:26.301Z,20.60
2018-12-29T13:46:19.577Z,20.70
2018-12-29T13:49:14.125Z,20.60
2018-12-29T13:52:07.657Z,20.60
2018-12-29T13:55:04.678Z,20.70
2018-12-29T13:57:56.283Z,20.60
2018-12-29T14:00:49.863Z,20.60
2018-12-29T14:03:43.313Z,20.60
2018-12-29T14:06:38.084Z,20.60
2018-12-29T14:09:31.127Z,20.60
2018-12-29T14:12:24.742Z,20.60
2018-12-29T14:15:18.997Z,20.60
2018-12-29T14:18:14.727Z,20.60
2018-12-29T14:21:08.604Z,20.60
2018-12-29T14:24:01.976Z,20.60
2018-12-29T14:26:55.992Z,20.60
2018-12-29T14:29:51.305Z,20.60
2018-12-29T14:32:44.555Z,20.60
2018-12-29T14:35:37.944Z,20.60
2018-12-29T14:38:31.915Z,20.60
2018-12-29T14:41:25.586Z,20.60
2018-12-29T14:44:19.379Z,20.60
2018-12-29T14:47:13.054Z,20.60
2018-12-29T14:50:06.306Z,20.60
2018-12-29T14:52:59.544Z,20.60
2018-12-29T14:55:52.730Z,20.60
2018-12-29T14:58:46.040Z,20.60
2018-12-29T15:01:38.947Z,20.60
2018-12-29T15:04:32.245Z,20.60
2018-12-29T15:07:25.962Z,20.60
2018-12-29T15:10:19.157Z,20.60
2018-12-29T15:13:12.252Z,20.60
2018-12-29T15:16:05.792Z,20.60
2018-12-29T15:18:59.278Z,20.60
2018-12-29T15:21:52.719Z,20.60
2018-12-29T15:24:46.203Z,20.60
2018-12-29T15:27:39.262Z,20.60
2018-12-29T15:30:32.825Z,20.60
2018-12-29T15:33:25.762Z,20.60
2018-12-29T15:36:19.409Z,20.60
2018-12-29T15:39:13.137Z,20.60
2018-12-29T15:42:06.837Z,20.60
2018-12-29T15:45:00.269Z,20.60
2018-12-29T15:47:54.067Z,20.60
2018-12-29T15:50:47.509Z,20.60
2018-12-29T15:53:41.308Z,20.60
2018-12-29T15:56:34.617Z,20.60
2018-12-29T15:59:27.783Z,20.60
2018-12-29T16:02:21.061Z,20.60
2018-12-29T16:05:14.637Z,20.60
2018-12-29T16:08:08.152Z,20.60
2018-12-29T16:11:01.059Z,20.60
2018-12-29T16:13:55.225Z,20.60
2018-12-29T16:16:48.422Z,20.60
2018-12-29T16:19:41.545Z,20.60
2018-12-29T16:22:38.438Z,20.60
2018-12-29T16:25:33.614Z,20.60
2018-12-29T16:28:27.987Z,20.60
2018-12-29T16:31:24.506Z,20.60
2018-12-29T16:34:18.206Z,20.60
2018-12-29T16:37:11.641Z,20.60
2018-12-29T16:40:05.352Z,20.60
2018-12-29T16:42:59.389Z,20.60
2018-12-29T16:45:53.236Z,20.60
2018-12-29T16:48:46.583Z,20.50
2018-12-29T16:51:40.282Z,20.50
2018-12-29T16:54:33.920Z,20.50
2018-12-29T16:57:27.305Z,20.50
2018-12-29T17:00:21.052Z,20.50
2018-12-29T17:03:17.064Z,20.50
2018-12-29T17:06:10.265Z,20.50
2018-12-29T17:09:04.451Z,20.50
2018-12-29T17:11:57.902Z,20.50
2018-12-29T17:14:51.546Z,20.50
2018-12-29T17:17:44.687Z,20.50
2018-12-29T17:20:37.792Z,20.50
2018-12-29T17:23:37.022Z,20.50
2018-12-29T17:26:30.676Z,20.50
2018-12-29T17:29:23.911Z,20.50
2018-12-29T17:32:17.580Z,20.50
2018-12-29T17:35:11.246Z,20.50
2018-12-29T17:38:09.203Z,20.50
2018-12-29T17:41:01.719Z,20.50
2018-12-29T17:43:55.173Z,20.50
2018-12-29T17:46:49.104Z,20.50
2018-12-29T17:49:41.940Z,20.50
2018-12-29T17:52:36.514Z,20.50
2018-12-29T17:55:30.849Z,20.50
2018-12-29T17:58:24.193Z,20.40
2018-12-29T18:01:17.304Z,20.50
2018-12-29T18:04:10.684Z,20.50
2018-12-29T18:07:04.050Z,20.40
2018-12-29T18:09:57.904Z,20.40
2018-12-29T18:12:51.553Z,20.50
2018-12-29T18:15:46.200Z,20.40
2018-12-29T18:18:42.155Z,20.40
2018-12-29T18:21:33.559Z,20.40
2018-12-29T18:24:26.461Z,20.40
2018-12-29T18:27:19.552Z,20.40
2018-12-29T18:30:12.637Z,20.40
2018-12-29T18:33:06.148Z,20.40
2018-12-29T18:36:04.311Z,20.40
2018-12-29T18:38:56.736Z,20.40
2018-12-29T18:41:50.596Z,20.40
2018-12-29T18:44:43.585Z,20.40
2018-12-29T18:47:36.759Z,20.40
2018-12-29T18:50:29.916Z,20.40
2018-12-29T18:53:23.193Z,20.40
2018-12-29T18:56:16.136Z,20.40
2018-12-29T18:59:09.190Z,20.40
2018-12-29T19:02:02.466Z,20.40
2018-12-29T19:04:55.955Z,20.40
2018-12-29T19:07:50.682Z,20.40
2018-12-29T19:10:43.653Z,20.40
2018-12-29T19:13:37.288Z,20.40
2018-12-29T19:16:30.616Z,20.40
2018-12-29T19:19:24.041Z,20.40
2018-12-29T19:22:16.840Z,20.40
2018-12-29T19:25:14.868Z,20.40
2018-12-29T19:28:08.097Z,20.40
2018-12-29T19:31:03.341Z,20.40
2018-12-29T19:33:56.945Z,20.40
2018-12-29T19:36:50.066Z,20.30
2018-12-29T19:39:44.335Z,20.40
2018-12-29T19:42:37.086Z,20.40
2018-12-29T19:45:30.177Z,20.40
2018-12-29T19:48:25.157Z,20.40
2018-12-29T19:51:18.462Z,20.40
2018-12-29T19:54:11.834Z,20.40
2018-12-29T19:57:05.118Z,20.40
2018-12-29T20:00:02.154Z,20.30
2018-12-29T20:02:57.288Z,20.30
2018-12-29T20:05:50.798Z,20.40
2018-12-29T20:08:44.064Z,20.30
2018-12-29T20:11:37.107Z,20.30
2018-12-29T20:14:30.134Z,20.30
2018-12-29T20:17:22.977Z,20.30
2018-12-29T20:20:16.422Z,20.30
2018-12-29T20:23:10.004Z,20.30
2018-12-29T20:26:03.571Z,20.30
2018-12-29T20:28:57.093Z,20.30
2018-12-29T20:31:50.177Z,20.30
2018-12-29T20:34:43.192Z,20.30
2018-12-29T20:37:36.588Z,20.30
2018-12-29T20:40:30.760Z,20.30
2018-12-29T20:43:25.390Z,20.30
2018-12-29T20:46:18.883Z,20.30
2018-12-29T20:49:12.192Z,20.30
2018-12-29T20:52:05.671Z,20.30
2018-12-29T20:54:58.848Z,20.30
2018-12-29T20:57:52.127Z,20.30
2018-12-29T21:00:45.246Z,20.20
2018-12-29T21:03:38.582Z,20.20
2018-12-29T21:06:32.137Z,20.20
2018-12-29T21:09:25.520Z,20.20
2018-12-29T21:12:18.538Z,20.20
2018-12-29T21:15:12.006Z,20.20
2018-12-29T21:18:05.317Z,20.20
2018-12-29T21:20:58.893Z,20.20
2018-12-29T21:23:52.424Z,20.20
2018-12-29T21:26:45.697Z,20.20
2018-12-29T21:29:39.026Z,20.20
2018-12-29T21:32:32.415Z,20.20
2018-12-29T21:35:25.643Z,20.20
2018-12-29T21:38:19.334Z,20.20
2018-12-29T21:41:12.703Z,20.20
2018-12-29T21:44:08.551Z,20.20
2018-12-29T21:47:05.048Z,20.20
2018-12-29T21:49:58.544Z,20.20
2018-12-29T21:52:53.243Z,20.20
2018-12-29T21:55:46.446Z,20.20
2018-12-29T21:58:39.667Z,20.20
2018-12-29T22:01:32.903Z,20.20
2018-12-29T22:04:25.923Z,20.20
2018-12-29T22:07:20.008Z,20.10
2018-12-29T22:10:13.233Z,20.10
2018-12-29T22:13:06.583Z,20.10
2018-12-29T22:15:59.814Z,20.10
2018-12-29T22:18:53.025Z,20.10
2018-12-29T22:21:46.731Z,20.10
2018-12-29T22:24:44.496Z,20.10
2018-12-29T22:27:40.341Z,20.10
2018-12-29T22:30:34.341Z,20.10
2018-12-29T22:33:27.250Z,20.10
2018-12-29T22:36:22.400Z,20.10
2018-12-29T22:39:15.670Z,20.10
2018-12-29T22:42:09.393Z,20.10
2018-12-29T22:45:02.608Z,20.10
2018-12-29T22:47:55.565Z,20.00
2018-12-29T22:50:52.105Z,20.00
2018-12-29T22:53:45.378Z,20.00
2018-12-29T22:56:38.656Z,20.00
2018-12-29T22:59:32.115Z,20.00
2018-12-29T23:02:25.634Z,20.00
2018-12-29T23:05:18.886Z,20.00
2018-12-29T23:08:12.264Z,20.00
2018-12-29T23:11:05.591Z,20.00
2018-12-29T23:14:00.068Z,20.00
2018-12-29T23:16:53.101Z,20.00
2018-12-29T23:19:45.984Z,20.00
2018-12-29T23:22:39.090Z,20.00
2018-12-29T23:25:32.175Z,20.00
2018-12-29T23:28:26.679Z,20.00
2018-12-29T23:31:21.449Z,20.00
2018-12-29T23:34:14.790Z,20.00
2018-12-29T23:37:08.228Z,20.00
2018-12-29T23:40:09.434Z,19.90
2018-12-29T23:43:02.656Z,20.00
2018-12-29T23:45:55.937Z,19.90
2018-12-29T23:48:52.857Z,19.90
2018-12-29T23:51:46.212Z,19.90
2018-12-29T23:54:39.265Z,19.90
2018-12-29T23:57:32.901Z,19.90
